Pagina principală
METAR-TAF:

METAR-TAF

Aeroporturi :

Golden Triangle Regional Airport

West Point-Starkville, Mississippi, Statele Unite ale Americii

Latitudine: 33-27N, longitudine: 088-35W, elevație: 80 m

Observații meteo curente

Raportul a fost făcut în urmă cu 1 oră și 0 de minute, la 20:56 UTC
Vânt 5 kt de la Sud-vest
Temperatură 36°C
Umiditate 33%
Presiune 1016 hPa
Vizibilitate: 16.1 km
Nori puțini la o înălțime de 8000 picior

METAR: KGTR 222056Z 22005KT 10SM FEW080 36/17 A3000 RMK AO2 SLPNO T03560172 56022

Ora: 16:56 (21:56 UTC)

Prognoză

Raportul a fost făcut în urmă cu 4 ore și 36 de minute, la 17:20 UTC
Prognoză valabilă de la 22 ora 18 UTC la 23 ora 18 UTC
Vânt 3 kt din direcții variabile
Vizibilitate: 10 km
Cer senin

TAF: KGTR 221720Z 2218/2318 VRB03KT P6SM SKC

Observații și prognoze meteo pentru peste 4.000 de aeroporturi (rapoarte METAR și TAF).

Stațiile disponibile sunt reprezentate pe hartă prin puncte galbene și roșii.

Țineți indicatorul mouse-ului pe punctul dorit pentru a vedea denumirea stației.

Apoi, faceți clic pentru a vedea observațiile și prognozele meteorologice.

Pentru a schimba harta: Pentru mărire, faceți clic pe butoanele verzi cu cruce neagră; pentru micșorare, pe butonul verde cu o liniuță; pentru hărți învecinate, pe săgețile verzi.


METAR-TAF: